OIBS 
Sirri Island Airport
Iran 
ICAOIATAStatus
OIBSSXIOperational
LatitudeLongitude
25° 54' 32" N54° 32' 21" E
25.90889954.539398
Local Time (DST+5)UTC (GMT+4)
04-18-2014 07:49 am04-18-2014 03:19
Sunrise-SunsetLocalUTC
Begin Civil Twilight06:00 am01:30
Sunrise06:24 am01:54
Sunset07:17 pm14:47
End Civil Twilight07:41 pm15:11

Current Weather

METARObservedFlight Conditions

OIBS 180300Z 30012KT 8000 NSC 30/16 Q1006

Fri, Apr 18, 2014 @ 03:00 UTC(Z)

(19 Minutes ago)

MVFR

(Marginal Visual Flight Rules)

WindVisibilityCloudsConditions
300° at 12 knots (22 kph)
8000 meters
  • Clear skies
  • No significant weather
TemperaturesReadingsPrecipitation
Current Temp30°C (86°F)
Dewpoint16°C (61°F)
Heat Index30°C (86°F)
Humidity43%
Altimeter29.7"Hg
Sea Level Pressure1006mb
Field Elevation45.93'
None Recorded

Additional weather within a 92.6km radius of OIBS

Location METAR
OIBA

49.4km E (094°)

19 minutes ago
OIBL

74.8km N (022°)

19 minutes ago
OIBK

88.3km N (321°)

19 minutes ago
VFR VFR    MVFR MVFR    IFR IFR    LIFR LIFR    Unknown Unknown

Previous 24 hour Weather Graphs

  Loading...

CheckWX.com is intended as a tool to help pilots better visualize weather data.   It is not intended as a substitute for an official weather briefing obtained from a Flight Service Station.
CheckWX.com does not meet the FAA requirements for an official pre-flight weather briefing.   Therefore, it's important that pilots still call and obtain an official FSS pre-flight weather briefing.